Time;durP1;ratioP1;P1;durP2;ratioP2;P2;SDS_P1;SDS_P2;PMS_P1;PMS_P2;Temp;Humidity;BMP_temperature;BMP_pressure;BME280_temperature;BME280_humidity;BME280_pressure;Samples;Min_cycle;Max_cycle;Signal;HPM_P1;HPM_P2
2020/12/21 00:02:13;;;;;;;10.32;4.50;;;7.00;95.70;;;;;;5067151;28;20028;-43
2020/12/21 00:04:38;;;;;;;11.35;4.63;;;7.00;95.70;;;;;;5066684;28;20040;-44
2020/12/21 00:07:04;;;;;;;8.73;4.00;;;7.00;95.70;;;;;;5067448;28;20035;-43
2020/12/21 00:09:29;;;;;;;10.50;4.05;;;6.90;95.60;;;;;;5066908;28;21922;-42
2020/12/21 00:11:55;;;;;;;9.52;4.75;;;6.90;95.70;;;;;;5066656;28;20039;-44
2020/12/21 00:14:20;;;;;;;10.77;4.38;;;6.90;95.70;;;;;;5067053;28;20614;-43
2020/12/21 00:16:51;;;;;;;9.77;4.55;;;6.90;95.70;;;;;;5066702;28;20035;-43
2020/12/21 00:19:21;;;;;;;12.55;4.50;;;6.80;95.70;;;;;;5066395;28;20078;-44
2020/12/21 00:21:50;;;;;;;11.45;4.50;;;6.80;95.80;;;;;;5064139;28;20028;-42
2020/12/21 00:24:16;;;;;;;8.85;3.97;;;6.80;95.80;;;;;;5066918;28;20021;-43
2020/12/21 00:26:49;;;;;;;12.00;4.53;;;6.70;95.70;;;;;;5066180;28;20499;-44
2020/12/21 00:29:15;;;;;;;13.30;4.90;;;6.70;95.80;;;;;;5066457;28;20029;-43
2020/12/21 00:31:41;;;;;;;11.10;4.65;;;6.70;95.90;;;;;;5066994;28;20036;-44
2020/12/21 00:34:07;;;;;;;11.52;4.20;;;6.70;95.90;;;;;;5066333;28;20111;-43
2020/12/21 00:36:44;;;;;;;11.30;4.35;;;6.70;95.90;;;;;;5067041;28;20107;-42
2020/12/21 00:39:11;;;;;;;11.10;4.55;;;6.60;95.90;;;;;;5066651;28;20777;-43
2020/12/21 00:41:37;;;;;;;10.52;4.70;;;6.60;95.90;;;;;;5066379;28;20111;-44
2020/12/21 00:44:04;;;;;;;11.68;4.45;;;6.60;95.90;;;;;;5066575;28;20700;-43
2020/12/21 00:46:30;;;;;;;7.15;3.70;;;6.60;95.90;;;;;;5067176;28;20024;-44
2020/12/21 00:48:57;;;;;;;13.07;3.90;;;6.60;96.00;;;;;;5066269;28;20116;-43
2020/12/21 00:51:23;;;;;;;11.23;4.80;;;6.60;96.00;;;;;;5066408;28;20038;-42
2020/12/21 00:53:50;;;;;;;11.88;4.90;;;6.60;96.00;;;;;;5066666;28;20028;-43
2020/12/21 00:56:19;;;;;;;10.35;4.63;;;6.50;95.90;;;;;;5066135;28;20474;-43
2020/12/21 00:58:46;;;;;;;8.45;4.25;;;6.60;96.00;;;;;;5067734;28;20021;-43
2020/12/21 01:01:23;;;;;;;6.57;3.55;;;6.50;95.90;;;;;;5070058;28;20028;-43
2020/12/21 01:03:49;;;;;;;6.22;3.33;;;6.50;95.90;;;;;;5070577;28;20044;-43
2020/12/21 01:06:15;;;;;;;9.32;4.25;;;6.50;95.90;;;;;;5070136;28;20392;-42
2020/12/21 01:08:44;;;;;;;6.70;4.07;;;6.50;96.00;;;;;;5069928;28;20021;-44
2020/12/21 01:11:11;;;;;;;8.57;4.03;;;6.50;96.00;;;;;;5069676;28;20084;-43
2020/12/21 01:13:38;;;;;;;8.80;3.70;;;6.50;96.00;;;;;;5070515;28;20489;-43
2020/12/21 01:16:04;;;;;;;8.80;4.00;;;6.40;96.00;;;;;;5070167;28;20513;-42
2020/12/21 01:18:30;;;;;;;8.82;4.13;;;6.40;96.00;;;;;;5070017;28;20032;-43
2020/12/21 01:20:55;;;;;;;9.52;4.18;;;6.40;96.00;;;;;;5069949;28;20483;-43
2020/12/21 01:23:21;;;;;;;7.22;3.83;;;6.40;96.00;;;;;;5069718;28;20029;-42
2020/12/21 01:25:46;;;;;;;7.93;4.07;;;6.40;96.00;;;;;;5069653;28;20028;-43
2020/12/21 01:28:12;;;;;;;10.10;4.25;;;6.30;96.00;;;;;;5069842;28;20043;-43
2020/12/21 01:30:37;;;;;;;12.25;4.60;;;6.30;96.10;;;;;;5069882;28;20040;-43
2020/12/21 01:33:03;;;;;;;10.52;4.38;;;6.30;96.10;;;;;;5069923;28;20035;-43
2020/12/21 01:35:29;;;;;;;12.80;4.70;;;6.30;96.20;;;;;;5069872;28;20029;-43
2020/12/21 01:37:54;;;;;;;9.98;4.55;;;6.30;96.20;;;;;;5068991;28;20037;-42
2020/12/21 01:40:20;;;;;;;9.90;4.50;;;6.30;96.20;;;;;;5069526;28;20078;-43
2020/12/21 01:42:45;;;;;;;9.90;4.78;;;6.20;96.20;;;;;;5069813;28;20020;-44
2020/12/21 01:45:11;;;;;;;8.75;4.78;;;6.20;96.20;;;;;;5069178;28;20029;-43
2020/12/21 01:47:37;;;;;;;12.85;5.28;;;6.20;96.20;;;;;;5069605;28;20099;-43
2020/12/21 01:50:04;;;;;;;13.43;4.85;;;6.10;96.20;;;;;;5069643;28;20458;-43
2020/12/21 01:52:31;;;;;;;12.68;4.53;;;6.10;96.20;;;;;;5068845;28;20096;-43
2020/12/21 01:54:56;;;;;;;11.48;3.95;;;6.10;96.20;;;;;;5069162;28;20483;-43
2020/12/21 01:57:22;;;;;;;11.18;4.35;;;6.10;96.20;;;;;;5069227;28;20107;-43
2020/12/21 01:59:47;;;;;;;13.35;4.25;;;6.10;96.30;;;;;;5069182;28;20442;-43
2020/12/21 02:02:13;;;;;;;7.45;3.60;;;6.10;96.30;;;;;;5069221;28;20537;-44
2020/12/21 02:04:38;;;;;;;16.92;4.40;;;6.10;96.30;;;;;;5069334;28;20450;-43
2020/12/21 02:07:06;;;;;;;15.18;4.40;;;6.10;96.30;;;;;;5069282;28;20064;-43
2020/12/21 02:09:32;;;;;;;5.93;3.67;;;6.10;96.30;;;;;;5068883;28;20110;-43
2020/12/21 02:11:58;;;;;;;9.30;3.97;;;6.10;96.30;;;;;;5068873;28;20090;-42
2020/12/21 02:14:23;;;;;;;7.68;4.05;;;6.10;96.30;;;;;;5069024;28;20063;-42
2020/12/21 02:16:49;;;;;;;9.02;3.70;;;6.20;96.30;;;;;;5069010;28;20731;-42
2020/12/21 02:19:14;;;;;;;11.88;4.57;;;6.10;96.30;;;;;;5068697;28;20395;-43
2020/12/21 02:21:40;;;;;;;9.32;4.05;;;6.10;96.30;;;;;;5068758;28;20032;-43
2020/12/21 02:24:06;;;;;;;9.52;3.40;;;6.10;96.30;;;;;;5069237;28;20123;-44
2020/12/21 02:26:32;;;;;;;6.43;3.13;;;6.10;96.30;;;;;;5068751;28;20142;-43
2020/12/21 02:28:59;;;;;;;7.32;3.28;;;6.10;96.40;;;;;;5068818;28;20029;-43
2020/12/21 02:31:26;;;;;;;12.55;4.90;;;6.10;96.60;;;;;;5068831;28;20605;-43
2020/12/21 02:33:52;;;;;;;10.50;4.20;;;6.10;96.60;;;;;;5067983;28;20024;-42
2020/12/21 02:36:18;;;;;;;10.48;4.38;;;6.10;96.50;;;;;;5068297;28;20430;-42
2020/12/21 02:38:44;;;;;;;11.13;4.32;;;6.10;96.40;;;;;;5068677;28;20058;-43
2020/12/21 02:41:14;;;;;;;10.55;4.18;;;6.10;96.40;;;;;;5067888;28;20112;-43
2020/12/21 02:43:40;;;;;;;9.90;3.80;;;6.10;96.40;;;;;;5068438;28;20024;-43
2020/12/21 02:46:11;;;;;;;8.40;3.97;;;6.10;96.40;;;;;;5068729;28;20043;-43
2020/12/21 02:48:36;;;;;;;10.35;3.50;;;6.10;96.40;;;;;;5068027;28;20034;-43
2020/12/21 02:51:02;;;;;;;6.40;3.10;;;6.10;96.40;;;;;;5068159;28;20037;-43
2020/12/21 02:53:28;;;;;;;10.60;3.13;;;6.10;96.40;;;;;;5067930;28;20133;-43
2020/12/21 02:55:53;;;;;;;4.70;3.03;;;6.10;96.40;;;;;;5068580;28;20060;-44
2020/12/21 02:58:19;;;;;;;8.07;3.08;;;6.00;96.40;;;;;;5067961;28;20085;-43
2020/12/21 03:00:44;;;;;;;11.10;3.55;;;6.00;96.30;;;;;;5067566;28;20032;-43
2020/12/21 03:03:10;;;;;;;8.18;3.40;;;6.00;96.30;;;;;;5068259;28;20375;-43
2020/12/21 03:05:36;;;;;;;6.50;2.97;;;6.00;96.40;;;;;;5068162;28;20012;-43
2020/12/21 03:08:04;;;;;;;8.45;3.70;;;6.00;96.40;;;;;;5067562;28;20023;-43
2020/12/21 03:10:29;;;;;;;7.78;2.88;;;6.00;96.40;;;;;;5068007;28;20059;-43
2020/12/21 03:12:55;;;;;;;8.90;3.58;;;6.00;96.40;;;;;;5067597;28;20020;-43
2020/12/21 03:15:20;;;;;;;8.50;3.53;;;6.00;96.40;;;;;;5067262;28;20107;-43
2020/12/21 03:17:46;;;;;;;8.13;3.30;;;6.00;96.40;;;;;;5067766;28;20021;-43
2020/12/21 03:20:11;;;;;;;9.27;3.30;;;6.00;96.40;;;;;;5067866;28;20032;-44
2020/12/21 03:22:37;;;;;;;6.13;3.15;;;6.00;96.40;;;;;;5066573;28;20024;-43
2020/12/21 03:25:03;;;;;;;10.18;3.45;;;6.00;96.40;;;;;;5067530;28;20067;-43
2020/12/21 03:27:29;;;;;;;7.45;3.03;;;6.00;96.40;;;;;;5067813;28;20432;-43
2020/12/21 03:29:54;;;;;;;8.38;3.08;;;5.90;96.40;;;;;;5067087;28;20083;-43
2020/12/21 03:32:20;;;;;;;8.93;3.00;;;5.90;96.40;;;;;;5067600;28;20077;-43
2020/12/21 03:34:45;;;;;;;11.45;3.67;;;5.90;96.40;;;;;;5067124;28;20368;-42
2020/12/21 03:37:11;;;;;;;7.95;3.28;;;5.90;96.40;;;;;;5066732;28;20104;-42
2020/12/21 03:39:37;;;;;;;6.25;3.08;;;5.90;96.40;;;;;;5068060;28;20019;-43
2020/12/21 03:42:03;;;;;;;9.02;2.80;;;5.90;96.40;;;;;;5067257;28;20032;-43
2020/12/21 03:44:29;;;;;;;5.55;3.22;;;5.80;96.40;;;;;;5066765;28;20565;-43
2020/12/21 03:46:55;;;;;;;5.00;3.00;;;5.80;96.40;;;;;;5067359;28;20028;-43
2020/12/21 03:49:20;;;;;;;7.70;2.97;;;5.90;96.50;;;;;;5066874;28;20475;-43
2020/12/21 03:51:46;;;;;;;7.40;2.67;;;5.90;96.40;;;;;;5066773;28;20472;-43
2020/12/21 03:54:11;;;;;;;7.50;2.80;;;5.80;96.40;;;;;;5067006;28;20021;-43
2020/12/21 03:56:42;;;;;;;7.10;3.10;;;5.80;96.40;;;;;;5067298;28;20541;-44
2020/12/21 03:59:07;;;;;;;8.43;2.72;;;5.80;96.40;;;;;;5067129;28;20047;-42
2020/12/21 04:01:33;;;;;;;7.63;2.80;;;5.80;96.50;;;;;;5067147;28;20024;-43
2020/12/21 04:03:58;;;;;;;8.30;3.10;;;5.90;96.50;;;;;;5066276;28;20403;-42
2020/12/21 04:06:24;;;;;;;9.88;3.50;;;5.90;96.60;;;;;;5067217;28;20111;-43
2020/12/21 04:08:49;;;;;;;9.95;3.75;;;5.90;96.60;;;;;;5066654;28;20032;-42
2020/12/21 04:11:15;;;;;;;7.60;2.90;;;6.00;96.50;;;;;;5066049;28;20057;-42
2020/12/21 04:13:40;;;;;;;9.75;3.50;;;6.00;96.50;;;;;;5067168;28;20120;-43
2020/12/21 04:16:06;;;;;;;11.90;3.58;;;6.00;96.40;;;;;;5066677;28;20471;-43
2020/12/21 04:18:31;;;;;;;8.93;3.55;;;6.00;96.40;;;;;;5066624;28;20033;-43
2020/12/21 04:20:57;;;;;;;6.63;3.83;;;6.00;96.40;;;;;;5066710;28;20032;-43
2020/12/21 04:23:22;;;;;;;6.82;2.97;;;6.00;96.40;;;;;;5067129;28;20029;-43
2020/12/21 04:25:49;;;;;;;7.75;3.03;;;6.00;96.30;;;;;;5066359;28;20032;-43
2020/12/21 04:28:15;;;;;;;6.82;2.95;;;6.00;96.30;;;;;;5066866;28;20028;-44
2020/12/21 04:30:40;;;;;;;8.82;3.40;;;5.90;96.60;;;;;;5066439;28;20028;-43
2020/12/21 04:33:06;;;;;;;6.50;2.88;;;5.90;96.40;;;;;;5066331;28;20029;-43
2020/12/21 04:35:31;;;;;;;5.60;2.95;;;6.00;96.40;;;;;;5071539;28;20028;-44
2020/12/21 04:37:57;;;;;;;7.22;2.92;;;5.90;96.40;;;;;;5070917;28;20100;-43
2020/12/21 04:40:23;;;;;;;7.03;2.90;;;5.90;96.40;;;;;;5070501;28;20025;-43
2020/12/21 04:42:50;;;;;;;6.57;3.20;;;5.90;96.40;;;;;;5070586;28;20563;-43
2020/12/21 04:45:17;;;;;;;6.40;3.22;;;5.90;96.50;;;;;;5070846;28;20482;-43
2020/12/21 04:47:43;;;;;;;6.03;3.17;;;5.90;96.40;;;;;;5069992;28;20021;-43
2020/12/21 04:50:16;;;;;;;8.02;2.85;;;5.90;96.40;;;;;;5070574;28;20127;-43
2020/12/21 04:52:50;;;;;;;6.18;2.80;;;5.90;96.40;;;;;;5071038;28;20025;-43
2020/12/21 04:55:21;;;;;;;6.00;2.70;;;5.90;96.40;;;;;;5070054;28;20021;-43
2020/12/21 04:57:57;;;;;;;8.65;2.90;;;5.80;96.40;;;;;;5070359;28;20040;-43
2020/12/21 05:00:25;;;;;;;5.05;2.65;;;5.90;96.50;;;;;;5069795;28;20036;-43
2020/12/21 05:02:50;;;;;;;7.28;3.33;;;5.80;96.50;;;;;;5070764;28;20025;-43
2020/12/21 05:05:37;;;;;;;6.00;2.50;;;5.90;96.50;;;;;;5070318;28;20039;-43
2020/12/21 05:08:24;;;;;;;5.72;2.95;;;5.90;96.50;;;;;;5069961;28;20040;-43
2020/12/21 05:11:01;;;;;;;6.88;2.95;;;5.80;96.40;;;;;;5069825;28;20132;-43
2020/12/21 05:13:29;;;;;;;8.23;3.00;;;5.80;96.70;;;;;;5070025;28;20039;-44
2020/12/21 05:15:55;;;;;;;7.68;2.65;;;5.80;96.40;;;;;;5069579;28;20062;-43
2020/12/21 05:18:26;;;;;;;5.10;2.40;;;5.80;96.40;;;;;;5069850;28;20090;-43
2020/12/21 05:20:59;;;;;;;9.85;2.55;;;5.80;96.50;;;;;;5070202;28;20021;-42
2020/12/21 05:23:25;;;;;;;8.30;3.85;;;5.80;96.50;;;;;;5069263;28;20139;-43
2020/12/21 05:26:08;;;;;;;5.13;2.83;;;5.80;96.50;;;;;;5069797;28;20488;-44
2020/12/21 05:28:36;;;;;;;6.72;2.85;;;5.80;96.50;;;;;;5069550;28;20639;-43
2020/12/21 05:31:04;;;;;;;5.18;2.90;;;5.80;96.50;;;;;;5069831;28;20041;-43
2020/12/21 05:33:30;;;;;;;6.30;2.08;;;5.80;96.50;;;;;;5069782;28;20073;-43
2020/12/21 05:36:06;;;;;;;6.07;2.35;;;5.80;96.50;;;;;;5069119;28;20032;-43
2020/12/21 05:38:32;;;;;;;6.35;2.60;;;5.80;96.50;;;;;;5070094;28;20044;-43
2020/12/21 05:41:18;;;;;;;3.72;2.40;;;5.80;96.50;;;;;;5069920;28;20021;-43
2020/12/21 05:43:46;;;;;;;6.60;2.60;;;5.70;96.50;;;;;;5068717;28;20618;-43
2020/12/21 05:46:23;;;;;;;10.55;4.13;;;5.80;96.50;;;;;;5069092;28;20020;-43
2020/12/21 05:48:51;;;;;;;7.03;2.90;;;5.80;96.50;;;;;;5069770;28;20381;-43
2020/12/21 05:51:21;;;;;;;5.97;2.58;;;5.80;96.50;;;;;;5069139;28;20082;-42
2020/12/21 05:53:47;;;;;;;8.15;2.90;;;5.80;96.50;;;;;;5069434;28;20081;-42
2020/12/21 05:56:13;;;;;;;5.93;2.40;;;5.80;96.40;;;;;;5069257;28;20727;-44
2020/12/21 05:58:41;;;;;;;7.85;2.70;;;5.80;96.40;;;;;;5068616;28;20029;-43
2020/12/21 06:01:14;;;;;;;6.28;2.72;;;5.80;96.50;;;;;;5069535;28;20024;-42
2020/12/21 06:03:50;;;;;;;8.13;2.60;;;5.80;96.50;;;;;;5068866;28;20148;-44
2020/12/21 06:06:19;;;;;;;7.47;2.63;;;5.80;96.50;;;;;;5069255;28;20103;-43
2020/12/21 06:08:47;;;;;;;7.63;2.70;;;5.80;96.50;;;;;;5069285;28;20052;-43
2020/12/21 06:11:14;;;;;;;7.20;2.47;;;5.80;96.50;;;;;;5068309;28;20076;-43
2020/12/21 06:13:44;;;;;;;5.97;2.47;;;5.80;96.50;;;;;;5069234;28;20376;-43
2020/12/21 06:16:11;;;;;;;4.63;2.13;;;5.80;96.60;;;;;;5069095;28;20029;-44
2020/12/21 06:18:36;;;;;;;7.00;2.50;;;5.90;96.60;;;;;;5068638;28;20044;-43
2020/12/21 06:21:02;;;;;;;6.95;2.72;;;5.90;96.60;;;;;;5068652;28;20048;-43
2020/12/21 06:23:38;;;;;;;3.60;2.40;;;5.90;96.60;;;;;;5068972;28;20028;-43
2020/12/21 06:26:09;;;;;;;5.95;2.20;;;5.90;96.50;;;;;;5068538;28;20028;-43
2020/12/21 06:28:34;;;;;;;6.47;2.30;;;6.00;96.50;;;;;;5069126;28;20090;-43
2020/12/21 06:31:19;;;;;;;5.07;2.30;;;6.00;96.50;;;;;;5068548;28;20036;-44
2020/12/21 06:33:46;;;;;;;4.80;2.30;;;6.00;96.50;;;;;;5068423;28;20403;-43
2020/12/21 06:36:13;;;;;;;4.25;2.25;;;6.00;96.50;;;;;;5068098;28;20020;-44
2020/12/21 06:38:43;;;;;;;6.38;2.40;;;6.00;96.40;;;;;;5068432;28;20020;-43
2020/12/21 06:41:23;;;;;;;7.13;2.28;;;6.00;96.40;;;;;;5068808;28;20037;-43
2020/12/21 06:44:06;;;;;;;5.63;2.47;;;6.00;96.40;;;;;;5068647;28;20021;-43
2020/12/21 06:46:32;;;;;;;5.97;2.20;;;6.00;96.40;;;;;;5068163;28;20032;-43
2020/12/21 06:49:15;;;;;;;5.68;2.53;;;6.00;96.40;;;;;;5068564;28;20032;-43
2020/12/21 06:51:43;;;;;;;4.00;2.42;;;6.00;96.40;;;;;;5068002;28;20044;-43
2020/12/21 06:54:10;;;;;;;5.32;2.38;;;5.90;96.30;;;;;;5067643;28;20237;-43
2020/12/21 06:56:36;;;;;;;8.40;3.42;;;5.90;96.40;;;;;;5066586;28;20037;-43
2020/12/21 06:59:02;;;;;;;6.90;2.85;;;5.90;96.40;;;;;;5067465;28;20028;-43
2020/12/21 07:01:29;;;;;;;5.03;2.50;;;5.90;96.60;;;;;;5064217;28;20047;-43
2020/12/21 07:03:55;;;;;;;3.08;2.20;;;5.80;96.40;;;;;;5067310;28;20029;-43
2020/12/21 07:06:21;;;;;;;4.15;2.20;;;5.80;96.40;;;;;;5066635;28;20055;-42
2020/12/21 07:08:49;;;;;;;6.40;2.70;;;5.80;96.50;;;;;;5066850;28;20020;-43
2020/12/21 07:11:23;;;;;;;6.80;2.67;;;5.80;96.50;;;;;;5066663;28;20396;-43
2020/12/21 07:13:50;;;;;;;5.28;2.88;;;5.80;96.50;;;;;;5066744;28;20104;-43
2020/12/21 07:16:18;;;;;;;12.50;4.32;;;5.80;96.60;;;;;;5065818;28;20119;-43
2020/12/21 07:18:47;;;;;;;11.95;4.45;;;5.80;96.90;;;;;;5067161;28;20537;-43
2020/12/21 07:21:13;;;;;;;9.30;3.85;;;5.90;96.70;;;;;;5066139;28;20028;-43
2020/12/21 07:23:40;;;;;;;10.43;3.35;;;5.90;96.70;;;;;;5058372;28;20127;-43
2020/12/21 07:26:12;;;;;;;9.00;4.43;;;6.00;96.80;;;;;;5054207;28;20052;-43
2020/12/21 07:28:38;;;;;;;8.00;3.83;;;6.00;96.70;;;;;;5070136;28;20095;-43
2020/12/21 07:31:09;;;;;;;9.00;3.70;;;6.10;96.80;;;;;;5067511;28;20467;-42
2020/12/21 07:33:48;;;;;;;10.65;4.32;;;6.10;96.70;;;;;;5059345;28;20082;-43
2020/12/21 07:36:14;;;;;;;10.32;3.90;;;6.20;96.70;;;;;;5050253;28;20104;-43
2020/12/21 07:38:39;;;;;;;7.25;3.15;;;6.20;96.70;;;;;;5047440;28;20112;-42
2020/12/21 07:41:05;;;;;;;9.57;3.72;;;6.20;96.70;;;;;;5047751;28;20067;-42
2020/12/21 07:43:45;;;;;;;9.70;3.92;;;6.20;96.70;;;;;;5046848;28;20128;-43
2020/12/21 07:46:19;;;;;;;12.07;4.22;;;6.30;96.70;;;;;;5047014;28;20025;-43
2020/12/21 07:48:45;;;;;;;8.27;3.55;;;6.30;96.70;;;;;;5047121;28;20035;-42
2020/12/21 07:51:10;;;;;;;9.90;3.70;;;6.30;96.60;;;;;;5046017;28;20037;-43
2020/12/21 07:53:40;;;;;;;9.70;3.88;;;6.30;96.60;;;;;;5047252;28;20103;-44
2020/12/21 07:56:06;;;;;;;6.47;3.10;;;6.30;96.60;;;;;;5046391;28;20365;-43
2020/12/21 07:58:35;;;;;;;10.90;3.45;;;6.30;96.60;;;;;;5046928;28;20040;-43
2020/12/21 08:01:01;;;;;;;11.15;3.97;;;6.30;96.60;;;;;;5046509;28;20104;-42
2020/12/21 08:03:29;;;;;;;7.75;3.85;;;6.30;96.70;;;;;;5046247;28;20131;-43
2020/12/21 08:06:10;;;;;;;11.60;4.28;;;6.30;96.70;;;;;;5046763;28;20107;-44
2020/12/21 08:08:36;;;;;;;9.05;4.15;;;6.30;96.80;;;;;;5046580;28;20107;-43
2020/12/21 08:11:02;;;;;;;10.85;4.63;;;6.30;96.80;;;;;;5046267;28;20024;-43
2020/12/21 08:13:28;;;;;;;9.15;4.03;;;6.40;96.80;;;;;;5046518;28;20029;-43
2020/12/21 08:16:07;;;;;;;10.10;4.13;;;6.40;96.70;;;;;;5051209;28;20064;-44
2020/12/21 08:18:33;;;;;;;8.63;3.70;;;6.50;96.70;;;;;;5066667;28;20066;-43
2020/12/21 08:20:58;;;;;;;7.95;3.38;;;6.60;96.70;;;;;;5066435;28;20474;-43
2020/12/21 08:23:26;;;;;;;7.07;3.03;;;6.60;96.60;;;;;;5066580;28;20464;-43
2020/12/21 08:25:52;;;;;;;6.32;2.80;;;6.70;96.60;;;;;;5066378;28;20025;-43
2020/12/21 08:28:44;;;;;;;6.00;2.50;;;6.70;96.60;;;;;;5066461;28;20032;-43
2020/12/21 08:31:20;;;;;;;11.60;4.05;;;6.80;96.60;;;;;;5062844;28;20040;-42
2020/12/21 08:33:57;;;;;;;6.22;3.38;;;6.80;96.50;;;;;;5066367;28;20502;-43
2020/12/21 08:36:29;;;;;;;6.03;3.35;;;6.80;96.40;;;;;;5066781;28;20027;-43
2020/12/21 08:39:08;;;;;;;7.90;3.13;;;6.80;96.30;;;;;;5066297;28;20025;-43
2020/12/21 08:41:51;;;;;;;8.30;3.70;;;6.90;96.30;;;;;;5066590;28;20476;-43
2020/12/21 08:44:23;;;;;;;10.10;3.50;;;7.00;96.30;;;;;;5067094;28;20040;-43
2020/12/21 08:46:59;;;;;;;7.50;2.90;;;7.00;96.30;;;;;;5066078;28;20432;-43
2020/12/21 08:49:27;;;;;;;5.70;3.30;;;7.00;96.20;;;;;;5066249;28;20090;-43
2020/12/21 08:51:58;;;;;;;9.40;4.00;;;7.00;96.20;;;;;;5066752;28;20032;-43
2020/12/21 08:54:23;;;;;;;5.68;2.63;;;7.10;96.20;;;;;;5066014;28;20368;-44
2020/12/21 08:56:51;;;;;;;7.32;2.67;;;7.10;96.20;;;;;;5066136;28;20036;-43
2020/12/21 08:59:17;;;;;;;6.93;2.80;;;7.10;96.20;;;;;;5065792;28;20036;-42
2020/12/21 09:01:43;;;;;;;10.43;3.58;;;7.20;96.50;;;;;;5066558;28;20025;-43
2020/12/21 09:04:10;;;;;;;6.13;2.80;;;7.20;96.20;;;;;;5066074;28;20033;-43
2020/12/21 09:06:36;;;;;;;5.60;2.63;;;7.20;96.10;;;;;;5066307;28;20039;-42
2020/12/21 09:09:03;;;;;;;6.13;2.55;;;7.30;96.10;;;;;;5065152;28;20021;-43
2020/12/21 09:11:28;;;;;;;6.28;3.30;;;7.30;96.10;;;;;;5059768;28;20043;-43
2020/12/21 09:13:54;;;;;;;9.43;3.30;;;7.30;96.10;;;;;;5045884;28;20455;-44
2020/12/21 09:16:22;;;;;;;4.95;2.72;;;7.40;96.30;;;;;;5046468;28;20032;-43
2020/12/21 09:18:48;;;;;;;8.15;2.88;;;7.40;96.00;;;;;;5046065;28;20124;-43
2020/12/21 09:21:23;;;;;;;7.15;3.00;;;7.50;96.00;;;;;;5049478;28;20100;-43
2020/12/21 09:23:50;;;;;;;9.55;2.90;;;7.50;95.90;;;;;;5047830;28;20830;-43
2020/12/21 09:26:16;;;;;;;6.97;2.60;;;7.50;95.90;;;;;;5057144;28;20032;-43
2020/12/21 09:28:43;;;;;;;7.78;2.92;;;7.60;95.90;;;;;;5057101;28;20059;-43
2020/12/21 09:31:10;;;;;;;5.90;2.65;;;7.70;95.80;;;;;;5061845;28;20754;-43
2020/12/21 09:33:35;;;;;;;8.68;2.80;;;7.70;95.70;;;;;;5069822;28;20086;-44
2020/12/21 09:36:01;;;;;;;7.20;2.85;;;7.80;95.70;;;;;;5068875;28;20115;-42
2020/12/21 09:38:27;;;;;;;5.72;2.80;;;7.80;95.70;;;;;;5051459;28;20137;-44
2020/12/21 09:40:52;;;;;;;6.88;2.95;;;7.80;95.60;;;;;;5049500;28;20705;-43
2020/12/21 09:43:18;;;;;;;7.55;2.72;;;7.90;95.50;;;;;;5049017;28;20021;-44
2020/12/21 09:45:44;;;;;;;5.93;2.80;;;7.90;95.50;;;;;;5049408;28;20027;-44
2020/12/21 09:48:09;;;;;;;6.10;2.58;;;7.90;95.50;;;;;;5057280;28;20122;-44
2020/12/21 09:50:35;;;;;;;9.00;2.85;;;8.00;95.50;;;;;;5056253;28;20124;-44
2020/12/21 09:53:00;;;;;;;10.43;3.15;;;8.00;95.50;;;;;;5058664;28;20098;-43
2020/12/21 09:55:26;;;;;;;7.47;3.03;;;8.00;95.30;;;;;;5057683;28;20025;-42
2020/12/21 09:57:51;;;;;;;11.15;3.40;;;8.10;95.40;;;;;;5051478;28;20112;-42
2020/12/21 10:00:17;;;;;;;9.98;2.38;;;8.10;95.30;;;;;;5048918;28;20017;-42
2020/12/21 10:02:42;;;;;;;10.02;3.00;;;8.20;95.20;;;;;;5056910;28;20491;-43
2020/12/21 10:05:08;;;;;;;6.63;2.40;;;8.10;95.20;;;;;;5059069;28;20028;-43
2020/12/21 10:07:33;;;;;;;7.43;3.00;;;8.20;95.30;;;;;;5052818;28;20029;-45
2020/12/21 10:09:59;;;;;;;4.70;2.70;;;8.20;95.20;;;;;;5048804;28;20419;-43
2020/12/21 10:12:24;;;;;;;7.28;2.30;;;8.30;95.20;;;;;;5048786;28;20514;-44
2020/12/21 10:14:50;;;;;;;5.82;2.45;;;8.30;95.10;;;;;;5048761;28;20493;-43
2020/12/21 10:17:15;;;;;;;8.40;3.13;;;8.30;95.10;;;;;;5048849;28;20131;-44
2020/12/21 10:19:41;;;;;;;5.55;2.80;;;8.30;95.10;;;;;;5048800;28;20073;-42
2020/12/21 10:22:06;;;;;;;8.05;3.08;;;8.30;95.10;;;;;;5048421;28;20043;-42
2020/12/21 10:24:32;;;;;;;10.52;3.53;;;8.30;95.10;;;;;;5048594;28;20435;-43
2020/12/21 10:26:57;;;;;;;7.15;3.47;;;8.30;95.00;;;;;;5048352;28;20024;-42
2020/12/21 10:29:23;;;;;;;8.80;3.15;;;8.30;95.10;;;;;;5048583;28;20059;-42
2020/12/21 10:31:48;;;;;;;7.05;3.00;;;8.40;95.10;;;;;;5048132;28;20053;-42
2020/12/21 10:34:14;;;;;;;8.27;2.83;;;8.30;95.10;;;;;;5048662;28;20032;-44
2020/12/21 10:36:40;;;;;;;9.20;3.63;;;8.40;95.10;;;;;;5048554;28;20534;-43
2020/12/21 10:39:06;;;;;;;7.72;3.10;;;8.40;95.10;;;;;;5048361;28;20025;-42
2020/12/21 10:41:34;;;;;;;7.10;2.50;;;8.40;95.20;;;;;;5048624;28;20021;-43
2020/12/21 10:44:00;;;;;;;8.65;3.10;;;8.40;95.20;;;;;;5048404;28;20025;-44
2020/12/21 10:46:26;;;;;;;9.15;2.70;;;8.40;95.10;;;;;;5048205;28;20079;-43
2020/12/21 10:48:51;;;;;;;7.05;2.97;;;8.40;95.20;;;;;;5048214;28;20078;-43
2020/12/21 10:51:31;;;;;;;8.55;2.78;;;8.40;95.20;;;;;;5048139;28;20094;-43
2020/12/21 10:53:56;;;;;;;6.30;2.80;;;8.30;95.30;;;;;;5047923;28;20028;-43
2020/12/21 10:56:23;;;;;;;6.18;2.70;;;8.40;95.40;;;;;;5047796;28;20455;-43
2020/12/21 10:58:48;;;;;;;8.80;3.20;;;8.40;95.50;;;;;;5047787;28;20074;-43
2020/12/21 11:01:17;;;;;;;10.90;3.22;;;8.40;95.50;;;;;;5048106;28;20028;-43
2020/12/21 11:03:43;;;;;;;7.55;2.85;;;8.40;95.60;;;;;;5061664;28;20403;-43
2020/12/21 11:06:09;;;;;;;10.02;3.20;;;8.40;95.60;;;;;;5069104;28;20056;-43
2020/12/21 11:08:35;;;;;;;9.23;3.00;;;8.40;95.70;;;;;;5068343;28;20727;-43
2020/12/21 11:11:01;;;;;;;7.47;2.90;;;8.30;95.80;;;;;;5067504;28;20384;-43
2020/12/21 11:13:26;;;;;;;7.90;2.90;;;8.30;95.80;;;;;;5067301;28;20136;-43
2020/12/21 11:15:52;;;;;;;9.57;3.33;;;8.30;96.10;;;;;;5068030;28;20030;-44
2020/12/21 11:18:18;;;;;;;7.65;3.67;;;8.30;96.10;;;;;;5067392;28;20024;-43
2020/12/21 11:20:43;;;;;;;8.57;3.35;;;8.30;96.30;;;;;;5067081;28;20058;-43
2020/12/21 11:23:09;;;;;;;8.73;3.28;;;8.30;96.20;;;;;;5067878;28;20369;-43
2020/12/21 11:25:36;;;;;;;9.23;3.50;;;8.30;96.20;;;;;;5067741;28;20037;-43
2020/12/21 11:28:06;;;;;;;8.93;3.60;;;8.40;96.20;;;;;;5067161;28;20024;-43
2020/12/21 11:30:32;;;;;;;9.32;3.28;;;8.30;96.20;;;;;;5068320;28;20040;-43
2020/12/21 11:32:58;;;;;;;8.07;3.03;;;8.40;96.30;;;;;;5051188;28;20028;-42
2020/12/21 11:35:24;;;;;;;5.10;2.88;;;8.40;96.30;;;;;;5051781;28;20050;-42
2020/12/21 11:37:50;;;;;;;6.85;2.65;;;8.40;96.40;;;;;;5070468;28;20024;-43
2020/12/21 11:40:16;;;;;;;5.43;2.53;;;8.40;96.30;;;;;;5067599;28;20032;-43
2020/12/21 11:42:42;;;;;;;6.45;2.80;;;8.40;96.30;;;;;;5066448;28;20125;-43
2020/12/21 11:45:08;;;;;;;7.30;2.58;;;8.30;96.40;;;;;;5067069;28;20078;-42
2020/12/21 11:47:33;;;;;;;10.15;3.42;;;8.30;96.40;;;;;;5066780;28;20040;-43
2020/12/21 11:49:59;;;;;;;10.60;3.33;;;8.30;96.50;;;;;;5066431;28;20036;-43
2020/12/21 11:52:25;;;;;;;10.20;3.83;;;8.30;96.60;;;;;;5066867;28;20464;-42
2020/12/21 11:54:50;;;;;;;9.77;3.85;;;8.30;96.60;;;;;;5066670;28;20028;-42
2020/12/21 11:57:16;;;;;;;8.40;3.45;;;8.30;96.60;;;;;;5067015;28;20135;-43
2020/12/21 11:59:41;;;;;;;7.88;3.20;;;8.30;96.60;;;;;;5067150;28;20028;-41
2020/12/21 12:02:07;;;;;;;6.85;2.97;;;8.40;96.60;;;;;;5066818;28;20143;-43
2020/12/21 12:04:33;;;;;;;6.50;2.80;;;8.40;96.60;;;;;;5067034;28;20503;-43
2020/12/21 12:07:02;;;;;;;7.65;3.25;;;8.40;96.60;;;;;;5066615;28;20089;-43
2020/12/21 12:09:28;;;;;;;8.02;2.88;;;8.40;96.60;;;;;;5066465;28;20055;-44
2020/12/21 12:11:54;;;;;;;5.70;3.00;;;8.40;96.60;;;;;;5066571;28;20134;-42
2020/12/21 12:14:20;;;;;;;5.57;3.67;;;8.40;96.60;;;;;;5066850;28;20032;-44
2020/12/21 12:16:46;;;;;;;5.53;2.72;;;8.40;96.50;;;;;;5066367;28;20599;-43
2020/12/21 12:19:11;;;;;;;8.45;2.85;;;8.40;96.50;;;;;;5066398;28;20021;-43
2020/12/21 12:21:37;;;;;;;9.57;3.33;;;8.50;96.60;;;;;;5066874;28;20090;-43
2020/12/21 12:24:02;;;;;;;8.50;3.63;;;8.40;96.70;;;;;;5061107;28;20464;-43
2020/12/21 12:26:28;;;;;;;7.60;3.30;;;8.40;96.70;;;;;;5058133;28;20037;-41
2020/12/21 12:28:54;;;;;;;8.13;2.85;;;8.40;96.70;;;;;;5057532;28;20025;-43
2020/12/21 12:31:20;;;;;;;7.15;3.33;;;8.40;96.70;;;;;;5055809;28;20118;-42
2020/12/21 12:33:47;;;;;;;8.18;3.25;;;8.40;96.70;;;;;;5063964;28;20111;-42
2020/12/21 12:36:20;;;;;;;9.57;3.10;;;8.40;96.70;;;;;;5066449;28;20495;-43
2020/12/21 12:38:46;;;;;;;4.65;2.95;;;8.40;96.80;;;;;;5066043;28;20107;-43
2020/12/21 12:41:12;;;;;;;8.70;2.90;;;8.40;97.20;;;;;;5066812;28;20103;-43
2020/12/21 12:43:38;;;;;;;7.82;3.30;;;8.40;96.90;;;;;;5066750;28;20424;-41
2020/12/21 12:46:04;;;;;;;7.38;3.15;;;8.40;96.90;;;;;;5065871;28;20464;-43
2020/12/21 12:48:30;;;;;;;6.70;3.60;;;8.40;96.90;;;;;;5066782;28;20028;-43
2020/12/21 12:50:56;;;;;;;7.65;3.75;;;8.40;96.90;;;;;;5066583;28;20476;-43
2020/12/21 12:53:21;;;;;;;6.03;3.10;;;8.40;96.90;;;;;;5060980;28;20500;-42
2020/12/21 12:55:47;;;;;;;7.75;3.28;;;8.40;96.90;;;;;;5050704;28;20044;-41
2020/12/21 12:58:12;;;;;;;10.73;3.63;;;8.40;96.90;;;;;;5050416;28;20021;-42